Imperial, California
Current Conditions -  °F | °C
As of 5:53 AM on Monday 24 Nov 2014 (Local Time) from KIPL Reporting Station
Clear Clear  
Wind Chill: 38°   Ceiling: Unl
Heat Index: 43°   Visibility: 10mi
Dew Point: 25°   Wind: 8mph
Humidity: 49%   Direction: 260°W
Pressure: 30.2"   Gusts: NA
Location:  32.85°N, 115.57°W
Report Text: KIPL 241353Z AUTO 26007KT 10SM CLR 06/M04 A3020 RMK AO2 SLP225 T00611039
Loading
Personal Weather Stations






























Interactive Weather Map New forecast layout! Learn more

10-Day Weather Forecast

Advertisements
Track Severe Weather on mobile